Portada
METAR-TAF:

METAR-TAF

Aeroports :

Lar, Iran

latitud: 27-40-26N, longitud: 054-22-53E, altitud: 792 m

Observació

L'informe es va fer fa 55 minuts, a les 10:00 UTC
Vent 6 kt del Nord/Nord-Est
Temperatura 44°C
Humitat 21%
Pressió 1000 hPa
Visibilitat: 6000 m

METAR: OISL 091000Z 02006KT 6000 NSC 44/17 Q0999 A2952 NOSIG

Hora: 15:25 (10:55 UTC)

Pronòstic

L'informe es va fer fa 5 hores i 45 minuts, a les 05:10 UTC
Pronòstic vàlid del 09 a les 06 UTC al 10 a les 12 UTC
Vent 8 kt del Sud-Oest
Visibilitat: 7000 m
Escasses núvols a una alçada de 4000 ft
Temporalment
l' 09 a les 18 UTC al 09 a les 24 UTC
Vent 18 kt del Sud-Oest
Escasses núvols a una alçada de 3500 ft
Cel ennuvolat a una alçada de 10000 ft

TAF: OISL 090510Z 0906/1012 22008KT 7000 FEW040 TEMPO 0918/0924 22018KT FEW035 BKN100

Observacions i pronòstics meteorològics de més de 4000 aeroports (METAR i TAF).

Les estacions disponibles són els punts grocs i vermells al mapa.

Posi el ratolí al punt desitjat per veure el nom de l'estació.

Feu clic per veure les observacions i els pronòstics meteorològics.

Per canviar el mapa: feu clic els botons verds amb una creu de color negre per apropar; al botó verd amb un guió per allunyar la imatge; o en les fletxes verdes per a mapes adjacents.


METAR-TAF: